Time,TemperatureF,DewpointF,PressureIn,WindDirection,WindDirectionDegrees,WindSpeedMPH,WindSpeedGustMPH,Humidity,HourlyPrecipIn,Conditions,Clouds,dailyrainin,SolarRadiationWatts/m^2,SoftwareType,DateUTC
2013-07-15 00:21:00,61.0,29.0,-100.00,North,357,5.0,11.0,29,0.00,,,0.00,0.000000,,2013-07-15 07:21:00,
2013-07-15 00:32:00,61.0,29.0,-100.00,North,357,5.0,11.0,29,0.00,,,0.00,0.000000,,2013-07-15 07:32:00,
2013-07-15 00:43:00,61.0,29.0,-100.00,North,357,5.0,11.0,29,0.00,,,0.00,0.000000,,2013-07-15 07:43:00,
2013-07-15 00:51:00,59.0,26.0,-100.00,NE,55,6.0,10.0,28,0.00,,,0.00,0.000000,,2013-07-15 07:51:00,
2013-07-15 01:22:00,59.0,26.0,-100.00,NE,55,6.0,10.0,28,0.00,,,0.00,0.000000,,2013-07-15 08:22:00,
2013-07-15 01:32:00,59.0,26.0,-100.00,NE,55,6.0,10.0,28,0.00,,,0.00,0.000000,,2013-07-15 08:32:00,
2013-07-15 01:43:00,59.0,26.0,-100.00,NE,55,6.0,10.0,28,0.00,,,0.00,0.000000,,2013-07-15 08:43:00,
2013-07-15 01:51:00,59.0,26.0,-100.00,SE,135,7.0,12.0,28,0.00,,,0.00,0.000000,,2013-07-15 08:51:00,
2013-07-15 02:11:00,59.0,26.0,-100.00,SE,135,7.0,12.0,28,0.00,,,0.00,0.000000,,2013-07-15 09:11:00,
2013-07-15 02:22:00,59.0,26.0,-100.00,SE,135,7.0,12.0,28,0.00,,,0.00,0.000000,,2013-07-15 09:22:00,
2013-07-15 02:32:00,59.0,26.0,-100.00,SE,135,7.0,12.0,28,0.00,,,0.00,0.000000,,2013-07-15 09:32:00,
2013-07-15 02:42:00,59.0,26.0,-100.00,SE,135,7.0,12.0,28,0.00,,,0.00,0.000000,,2013-07-15 09:42:00,
2013-07-15 02:51:00,60.0,21.0,-100.00,South,181,7.0,14.0,22,0.00,,,0.00,0.000000,,2013-07-15 09:51:00,
2013-07-15 03:11:00,60.0,21.0,-100.00,South,181,7.0,14.0,22,0.00,,,0.00,0.000000,,2013-07-15 10:11:00,
2013-07-15 03:21:00,60.0,21.0,-100.00,South,181,7.0,14.0,22,0.00,,,0.00,0.000000,,2013-07-15 10:21:00,
2013-07-15 03:32:00,60.0,21.0,-100.00,South,181,7.0,14.0,22,0.00,,,0.00,0.000000,,2013-07-15 10:32:00,
2013-07-15 03:42:00,60.0,21.0,-100.00,South,181,7.0,14.0,22,0.00,,,0.00,0.000000,,2013-07-15 10:42:00,
2013-07-15 03:51:00,59.0,22.0,-100.00,SE,142,7.0,13.0,24,0.00,,,0.00,0.000000,,2013-07-15 10:51:00,
2013-07-15 04:11:00,59.0,22.0,-100.00,SE,142,7.0,13.0,24,0.00,,,0.00,0.000000,,2013-07-15 11:11:00,
2013-07-15 04:22:00,59.0,22.0,-100.00,SE,142,7.0,13.0,24,0.00,,,0.00,0.000000,,2013-07-15 11:22:00,
2013-07-15 04:32:00,59.0,22.0,-100.00,SE,142,7.0,13.0,24,0.00,,,0.00,0.000000,,2013-07-15 11:32:00,
2013-07-15 04:42:00,59.0,22.0,-100.00,SE,142,7.0,13.0,24,0.00,,,0.00,0.000000,,2013-07-15 11:42:00,
2013-07-15 04:51:00,57.0,21.0,-100.00,SSW,200,7.0,13.0,24,0.00,,,0.00,0.000000,,2013-07-15 11:51:00,
2013-07-15 05:11:00,57.0,21.0,-100.00,SSW,200,7.0,13.0,24,0.00,,,0.00,0.000000,,2013-07-15 12:11:00,
2013-07-15 05:22:00,57.0,21.0,-100.00,SSW,200,7.0,13.0,24,0.00,,,0.00,0.000000,,2013-07-15 12:22:00,
2013-07-15 05:32:00,57.0,21.0,-100.00,SSW,200,7.0,13.0,24,0.00,,,0.00,0.000000,,2013-07-15 12:32:00,
2013-07-15 05:42:00,57.0,21.0,-100.00,SSW,200,7.0,13.0,24,0.00,,,0.00,0.000000,,2013-07-15 12:42:00,
2013-07-15 05:51:00,58.0,22.0,-100.00,SSE,162,8.0,14.0,25,0.00,,,0.00,0.000000,,2013-07-15 12:51:00,
2013-07-15 06:22:00,58.0,22.0,-100.00,SSE,162,8.0,14.0,25,0.00,,,0.00,0.000000,,2013-07-15 13:22:00,
2013-07-15 06:32:00,58.0,22.0,-100.00,SSE,162,8.0,14.0,25,0.00,,,0.00,0.000000,,2013-07-15 13:32:00,
2013-07-15 06:43:00,58.0,22.0,-100.00,SSE,162,8.0,14.0,25,0.00,,,0.00,0.000000,,2013-07-15 13:43:00,
2013-07-15 06:51:00,60.0,27.0,-100.00,SSW,193,7.0,15.0,28,0.00,,,0.00,66.000000,,2013-07-15 13:51:00,
2013-07-15 07:22:00,60.0,27.0,-100.00,SSW,193,7.0,15.0,28,0.00,,,0.00,66.000000,,2013-07-15 14:22:00,
2013-07-15 07:33:00,60.0,27.0,-100.00,SSW,193,7.0,15.0,28,0.00,,,0.00,66.000000,,2013-07-15 14:33:00,
2013-07-15 07:42:00,60.0,27.0,-100.00,SSW,193,7.0,15.0,28,0.00,,,0.00,66.000000,,2013-07-15 14:42:00,
2013-07-15 07:51:00,61.0,26.0,-100.00,SSE,152,6.0,13.0,26,0.00,,,0.00,324.000000,,2013-07-15 14:51:00,
2013-07-15 08:14:00,61.0,26.0,-100.00,SSE,152,6.0,13.0,26,0.00,,,0.00,324.000000,,2013-07-15 15:14:00,
2013-07-15 08:24:00,61.0,26.0,-100.00,SSE,152,6.0,13.0,26,0.00,,,0.00,324.000000,,2013-07-15 15:24:00,
2013-07-15 08:35:00,61.0,26.0,-100.00,SSE,152,6.0,13.0,26,0.00,,,0.00,324.000000,,2013-07-15 15:35:00,
2013-07-15 08:44:00,61.0,26.0,-100.00,SSE,152,6.0,13.0,26,0.00,,,0.00,324.000000,,2013-07-15 15:44:00,
2013-07-15 08:51:00,67.0,30.0,-100.00,North,9,2.0,11.0,25,0.00,,,0.00,612.000000,,2013-07-15 15:51:00,
2013-07-15 09:24:00,67.0,30.0,-100.00,North,9,2.0,11.0,25,0.00,,,0.00,612.000000,,2013-07-15 16:24:00,
2013-07-15 09:32:00,67.0,30.0,-100.00,North,9,2.0,11.0,25,0.00,,,0.00,612.000000,,2013-07-15 16:32:00,
2013-07-15 09:44:00,67.0,30.0,-100.00,North,9,2.0,11.0,25,0.00,,,0.00,612.000000,,2013-07-15 16:44:00,
2013-07-15 09:51:00,75.0,34.0,-100.00,NNE,26,0.0,8.0,22,0.00,,,0.00,888.000000,,2013-07-15 16:51:00,
2013-07-15 10:13:00,75.0,34.0,-100.00,NNE,26,0.0,8.0,22,0.00,,,0.00,888.000000,,2013-07-15 17:13:00,
2013-07-15 10:23:00,75.0,34.0,-100.00,NNE,26,0.0,8.0,22,0.00,,,0.00,888.000000,,2013-07-15 17:23:00,
2013-07-15 10:35:00,75.0,34.0,-100.00,NNE,26,0.0,8.0,22,0.00,,,0.00,888.000000,,2013-07-15 17:35:00,
2013-07-15 10:45:00,75.0,34.0,-100.00,NNE,26,0.0,8.0,22,0.00,,,0.00,888.000000,,2013-07-15 17:45:00,
2013-07-15 12:11:00,78.0,34.0,-100.00,South,189,2.0,7.0,20,-99.99,,,0.00,1310.000000,,2013-07-15 19:11:00,
2013-07-15 12:24:00,78.0,34.0,-100.00,South,189,2.0,7.0,20,-99.99,,,0.00,1310.000000,,2013-07-15 19:24:00,
2013-07-15 12:34:00,78.0,34.0,-100.00,South,189,2.0,7.0,20,-99.99,,,0.00,1310.000000,,2013-07-15 19:34:00,
2013-07-15 13:24:00,76.0,33.0,-100.00,SSW,205,4.0,8.0,21,0.00,,,0.00,1408.000000,,2013-07-15 20:24:00,
2013-07-15 13:43:00,76.0,33.0,-100.00,SSW,205,4.0,8.0,21,0.00,,,0.00,1408.000000,,2013-07-15 20:43:00,
2013-07-15 13:51:00,75.0,35.0,-100.00,SW,215,4.0,12.0,23,0.00,,,0.00,1425.000000,,2013-07-15 20:51:00,
2013-07-15 14:12:00,75.0,35.0,-100.00,SW,215,4.0,12.0,23,0.00,,,0.00,1425.000000,,2013-07-15 21:12:00,
2013-07-15 14:23:00,75.0,35.0,-100.00,SW,215,4.0,12.0,23,0.00,,,0.00,1425.000000,,2013-07-15 21:23:00,
2013-07-15 14:34:00,75.0,35.0,-100.00,SW,215,4.0,12.0,23,0.00,,,0.00,1425.000000,,2013-07-15 21:34:00,
2013-07-15 14:44:00,75.0,35.0,-100.00,SW,215,4.0,12.0,23,0.00,,,0.00,1425.000000,,2013-07-15 21:44:00,
2013-07-15 14:51:00,78.0,37.0,-100.00,SW,233,3.0,13.0,23,0.00,,,0.00,1375.000000,,2013-07-15 21:51:00,
2013-07-15 15:22:00,78.0,37.0,-100.00,SW,233,3.0,13.0,23,0.00,,,0.00,1375.000000,,2013-07-15 22:22:00,
2013-07-15 15:34:00,78.0,37.0,-100.00,SW,233,3.0,13.0,23,0.00,,,0.00,1375.000000,,2013-07-15 22:34:00,
2013-07-15 15:43:00,78.0,37.0,-100.00,SW,233,3.0,13.0,23,0.00,,,0.00,1375.000000,,2013-07-15 22:43:00,
2013-07-15 15:51:00,73.0,33.0,-100.00,ENE,60,3.0,9.0,23,0.00,,,0.00,1237.000000,,2013-07-15 22:51:00,
2013-07-15 16:34:00,73.0,33.0,-100.00,ENE,60,3.0,9.0,23,0.00,,,0.00,1237.000000,,2013-07-15 23:34:00,
2013-07-15 16:51:00,72.0,32.0,-100.00,WSW,240,4.0,13.0,23,0.00,,,0.00,1031.000000,,2013-07-15 23:51:00,
2013-07-15 17:24:00,72.0,32.0,-100.00,WSW,240,4.0,13.0,23,0.00,,,0.00,1031.000000,,2013-07-16 00:24:00,
2013-07-15 17:33:00,72.0,32.0,-100.00,WSW,240,4.0,13.0,23,0.00,,,0.00,1031.000000,,2013-07-16 00:33:00,
2013-07-15 17:43:00,72.0,32.0,-100.00,WSW,240,4.0,13.0,23,0.00,,,0.00,1031.000000,,2013-07-16 00:43:00,
2013-07-15 18:13:00,70.0,32.0,-100.00,WSW,244,3.0,11.0,24,0.00,,,0.00,772.000000,,2013-07-16 01:13:00,
2013-07-15 18:24:00,70.0,32.0,-100.00,WSW,244,3.0,11.0,24,0.00,,,0.00,772.000000,,2013-07-16 01:24:00,
2013-07-15 18:33:00,70.0,32.0,-100.00,WSW,244,3.0,11.0,24,0.00,,,0.00,772.000000,,2013-07-16 01:33:00,
2013-07-15 18:44:00,70.0,32.0,-100.00,WSW,244,3.0,11.0,24,0.00,,,0.00,772.000000,,2013-07-16 01:44:00,
2013-07-15 19:24:00,67.0,33.0,-100.00,WNW,296,3.0,12.0,28,0.00,,,0.00,336.000000,,2013-07-16 02:24:00,
2013-07-15 19:35:00,67.0,33.0,-100.00,WNW,296,3.0,12.0,28,0.00,,,0.00,336.000000,,2013-07-16 02:35:00,
2013-07-15 19:51:00,61.0,30.0,-100.00,ENE,58,6.0,11.0,31,0.00,,,0.00,25.000000,,2013-07-16 02:51:00,
2013-07-15 20:13:00,61.0,30.0,-100.00,ENE,58,6.0,11.0,31,0.00,,,0.00,25.000000,,2013-07-16 03:13:00,
2013-07-15 20:24:00,61.0,30.0,-100.00,ENE,58,6.0,11.0,31,0.00,,,0.00,25.000000,,2013-07-16 03:24:00,
2013-07-15 20:35:00,61.0,30.0,-100.00,ENE,58,6.0,11.0,31,0.00,,,0.00,25.000000,,2013-07-16 03:35:00,
2013-07-15 20:44:00,61.0,30.0,-100.00,ENE,58,6.0,11.0,31,0.00,,,0.00,25.000000,,2013-07-16 03:44:00,